EW5738 Weather Reports


Display with metric or nautical units.
time (UTC)temp
F
wind
direction
speed
MPH
gust
MPH
rain 1hr
in
rain 24hr
in
rain mn
in
humidity
%
barometer
mb
20240227223002 79 133 4.0 11.0 0.00 0.00 0.00 75 1019.7
20240227221614 79 197 5.0 11.0 0.00 0.00 0.00 77 1019.7
20240227220123 78 150 4.0 10.0 0.00 0.00 0.00 77 1019.6
20240227214556 78 161 3.0 9.0 0.00 0.00 0.00 77 1019.5
20240227213105 77 175 6.0 11.0 0.00 0.00 0.00 78 1019.4
20240227211549 77 159 3.0 7.0 0.00 0.00 0.00 81 1019.2
20240227210045 75 178 3.0 7.0 0.00 0.00 0.00 85 1019.3
20240227204541 73 210 3.0 7.0 0.00 0.00 0.00 88 1019.1
20240227203039 71 167 3.0 7.0 0.00 0.00 0.00 90 1019.0
20240227201535 70 204 4.0 7.0 0.00 0.00 0.00 92 1018.9
20240227200034 69 187 2.0 6.0 0.00 0.00 0.00 93 1018.7
20240227194530 69 185 3.0 5.0 0.00 0.00 0.00 92 1018.5
20240227193028 70 188 2.0 6.0 0.00 0.00 0.00 91 1018.3
20240227191536 70 193 3.0 8.0 0.00 0.00 0.00 92 1018.2
20240227190025 69 203 2.0 6.0 0.00 0.00 0.00 93 1018.1
20240227184528 69 245 1.0 6.0 0.00 0.00 0.00 92 1017.9
20240227183023 69 197 3.0 5.0 0.00 0.00 0.00 92 1017.6
20240227181532 70 209 3.0 5.0 0.00 0.00 0.00 92 1017.5
20240227180021 70 269 1.0 3.0 0.00 0.00 0.00 91 1017.5
20240227174521 71 202 2.0 4.0 0.00 0.00 0.00 90 1017.2
20240227173016 72 195 2.0 4.0 0.00 0.00 0.00 87 1017.2
20240227171514 71 167 3.0 6.0 0.00 0.00 0.00 89 1017.3
20240227170013 71 199 2.0 6.0 0.00 0.00 0.00 90 1017.4
20240227164512 71 187 1.0 4.0 0.00 0.00 0.00 90 1017.4
20240227163011 71 206 2.0 5.0 0.00 0.00 0.00 89 1017.3
20240227161508 72 214 3.0 5.0 0.00 0.00 0.00 87 1017.3
20240227160007 72 213 2.0 4.0 0.00 0.00 0.00 88 1017.4
20240227154504 72 202 2.0 4.0 0.00 0.00 0.00 86 1017.5
20240227153001 73 199 2.0 5.0 0.00 0.00 0.00 84 1017.6
20240227151605 74 197 3.0 5.0 0.00 0.00 0.00 84 1017.7
20240227150114 74 178 2.0 5.0 0.00 0.00 0.00 83 1017.8
20240227144557 74 178 2.0 6.0 0.00 0.00 0.00 83 1017.9
20240227143103 73 197 4.0 6.0 0.00 0.00 0.00 85 1017.9
20240227141554 74 199 2.0 5.0 0.00 0.00 0.00 83 1017.9
20240227140052 74 209 3.0 5.0 0.00 0.00 0.00 83 1018.0
20240227134602 74 216 3.0 5.0 0.00 0.00 0.00 83 1018.1
20240227133048 75 178 2.0 5.0 0.00 0.00 0.00 81 1018.2
20240227131551 75 170 2.0 6.0 0.00 0.00 0.00 81 1018.3
20240227130046 76 162 3.0 5.0 0.00 0.00 0.00 80 1018.4
20240227124550 76 145 3.0 7.0 0.00 0.00 0.00 79 1018.5
20240227123045 76 130 3.0 6.0 0.00 0.00 0.00 79 1018.6
20240227121557 76 170 2.0 5.0 0.00 0.00 0.00 78 1018.7
20240227120115 77 185 3.0 6.0 0.00 0.00 0.00 77 1018.7
20240227114543 77 139 4.0 7.0 0.00 0.00 0.00 76 1018.6
20240227113141 77 152 2.0 6.0 0.00 0.00 0.00 75 1018.6
20240227111540 77 162 3.0 8.0 0.00 0.00 0.00 75 1018.6
20240227110041 78 152 3.0 10.0 0.00 0.00 0.00 74 1018.7
20240227104537 77 122 2.0 9.0 0.00 0.00 0.00 75 1018.6
20240227103045 78 117 2.0 8.0 0.00 0.00 0.00 74 1018.5
20240227101533 78 178 2.0 6.0 0.00 0.00 0.00 73 1018.4
20240227100032 78 137 6.0 12.0 0.00 0.00 0.00 72 1018.2
20240227094531 78 145 3.0 11.0 0.00 0.00 0.00 72 1018.0
20240227093027 78 150 5.0 10.0 0.00 0.00 0.00 71 1017.9
20240227091525 79 150 6.0 15.0 0.00 0.00 0.00 71 1017.8
20240227090022 79 131 7.0 13.0 0.00 0.00 0.00 72 1017.6
20240227084521 79 98 6.0 13.0 0.00 0.00 0.00 73 1017.3
20240227083022 79 125 4.0 10.0 0.00 0.00 0.00 73 1017.1
20240227081522 79 57 5.0 11.0 0.00 0.00 0.00 72 1016.9
20240227080015 79 148 7.0 13.0 0.00 0.00 0.00 72 1016.7
20240227074519 80 103 6.0 13.0 0.00 0.00 0.00 73 1016.5
20240227073014 80 167 5.0 13.0 0.00 0.00 0.00 73 1016.2
20240227071529 80 110 4.0 14.0 0.00 0.00 0.00 76 1016.2
20240227070013 80 130 6.0 19.0 0.00 0.00 0.00 75 1015.9
20240227064511 80 89 5.0 14.0 0.00 0.00 0.00 75 1015.7
20240227063010 81 124 6.0 16.0 0.00 0.00 0.00 74 1015.6
20240227061510 81 20 8.0 17.0 0.00 0.00 0.00 74 1015.4
20240227060028 81 123 4.0 14.0 0.00 0.00 0.00 75 1015.4
20240227054507 82 1 4.0 9.0 0.00 0.00 0.00 73 1015.3
20240227053013 82 98 8.0 16.0 0.00 0.00 0.00 73 1015.2
20240227051505 82 37 3.0 13.0 0.00 0.00 0.00 75 1015.1
20240227050004 83 88 3.0 12.0 0.00 0.00 0.00 73 1015.0
20240227044502 83 135 4.0 14.0 0.00 0.00 0.00 74 1015.0
20240227043106 84 109 2.0 12.0 0.00 0.00 0.00 71 1014.9
20240227041600 83 51 2.0 9.0 0.00 0.00 0.00 75 1015.1
20240227040102 83 89 2.0 6.0 0.00 0.00 0.00 75 1015.1
20240227034609 82 81 3.0 10.0 0.00 0.00 0.00 76 1015.3
20240227033054 82 76 2.0 12.0 0.00 0.00 0.00 76 1015.4
20240227031558 82 35 2.0 14.0 0.00 0.00 0.00 74 1015.5
20240227030050 81 253 2.0 8.0 0.00 0.00 0.00 77 1015.6
20240227024549 81 46 2.0 9.0 0.00 0.00 0.00 75 1015.7
20240227023046 82 46 1.0 6.0 0.00 0.00 0.00 73 1015.7
20240227021559 82 89 4.0 10.0 0.00 0.00 0.00 71 1015.7
20240227020042 83 347 3.0 9.0 0.00 0.00 0.00 71 1015.8
20240227014540 81 164 1.0 7.0 0.00 0.00 0.00 76 1016.2
20240227013040 81 54 2.0 8.0 0.00 0.00 0.00 76 1016.2
20240227011539 81 52 2.0 7.0 0.00 0.00 0.00 74 1016.3
20240227010052 82 28 1.0 6.0 0.00 0.00 0.00 74 1016.3
20240227004550 83 105 3.0 6.0 0.00 0.00 0.00 71 1016.4
20240227003035 82 135 0.0 6.0 0.00 0.00 0.00 72 1016.4
20240227001535 82 174 3.0 7.0 0.00 0.00 0.00 71 1016.6
20240227000039 83 184 1.0 7.0 0.00 0.00 0.00 69 1016.6
20240226234536 82 126 2.0 7.0 0.00 0.00 0.00 72 1016.7
20240226233026 82 155 3.0 9.0 0.00 0.00 0.00 73 1016.7
20240226231529 82 139 5.0 10.0 0.00 0.00 0.00 71 1016.7
20240226230021 82 188 4.0 8.0 0.00 0.00 0.00 75 1016.7
20240226224518 82 176 6.0 9.0 0.00 0.00 0.00 78 1016.6